createdAt,value
2022-12-15T00:00:56.408Z,16.98
2022-12-15T00:02:28.334Z,18.00
2022-12-15T00:04:00.216Z,18.44
2022-12-15T00:05:31.767Z,18.99
2022-12-15T00:07:03.774Z,16.98
2022-12-15T00:08:35.434Z,18.38
2022-12-15T00:10:07.000Z,18.11
2022-12-15T00:11:38.320Z,19.14
2022-12-15T00:13:09.936Z,19.52
2022-12-15T00:14:41.410Z,17.52
2022-12-15T00:16:12.967Z,19.22
2022-12-15T00:17:44.576Z,19.60
2022-12-15T00:19:16.026Z,20.30
2022-12-15T00:20:47.264Z,19.64
2022-12-15T00:22:18.573Z,20.00
2022-12-15T00:23:50.052Z,19.88
2022-12-15T00:25:45.016Z,19.98
2022-12-15T00:27:16.507Z,19.99
2022-12-15T00:28:48.053Z,20.71
2022-12-15T00:30:19.578Z,20.05
2022-12-15T00:31:51.108Z,20.47
2022-12-15T00:33:22.563Z,20.07
2022-12-15T00:34:54.098Z,19.98
2022-12-15T00:36:25.551Z,19.67
2022-12-15T00:37:56.918Z,20.88
2022-12-15T00:39:28.437Z,20.30
2022-12-15T00:40:59.995Z,20.57
2022-12-15T00:42:31.529Z,21.32
2022-12-15T00:44:03.038Z,20.76
2022-12-15T00:45:34.316Z,21.04
2022-12-15T00:47:10.676Z,21.22
2022-12-15T00:48:41.843Z,20.09
2022-12-15T00:50:13.173Z,20.04
2022-12-15T00:51:44.466Z,20.17
2022-12-15T00:53:16.061Z,20.75
2022-12-15T00:54:47.665Z,20.08
2022-12-15T00:56:19.356Z,20.59
2022-12-15T00:57:50.743Z,20.49
2022-12-15T00:59:22.288Z,21.30
2022-12-15T01:00:53.999Z,21.58
2022-12-15T01:02:25.882Z,21.30
2022-12-15T01:03:57.886Z,21.46
2022-12-15T01:05:30.576Z,21.22
2022-12-15T01:07:02.296Z,20.65
2022-12-15T01:08:33.654Z,20.01
2022-12-15T01:10:05.159Z,20.19
2022-12-15T01:11:36.717Z,22.02
2022-12-15T01:13:08.334Z,21.49
2022-12-15T01:14:40.069Z,21.56
2022-12-15T01:16:11.713Z,21.30
2022-12-15T01:17:42.953Z,20.95
2022-12-15T01:19:14.372Z,21.56
2022-12-15T01:20:46.020Z,21.23
2022-12-15T01:22:17.571Z,20.55
2022-12-15T01:23:49.246Z,19.62
2022-12-15T01:25:20.654Z,20.61
2022-12-15T01:26:52.107Z,20.48
2022-12-15T01:28:23.423Z,21.42
2022-12-15T01:29:55.129Z,21.93
2022-12-15T01:31:26.661Z,21.98
2022-12-15T01:32:58.154Z,22.27
2022-12-15T01:34:29.632Z,21.56
2022-12-15T01:36:01.328Z,21.01
2022-12-15T01:37:32.742Z,20.15
2022-12-15T01:39:04.499Z,20.47
2022-12-15T01:40:36.353Z,20.97
2022-12-15T01:42:07.926Z,20.89
2022-12-15T01:43:39.501Z,20.87
2022-12-15T01:45:11.178Z,20.45
2022-12-15T01:46:44.028Z,20.36
2022-12-15T01:48:15.616Z,20.36
2022-12-15T01:49:47.336Z,20.54
2022-12-15T01:51:20.853Z,20.06
2022-12-15T01:52:52.300Z,20.38
2022-12-15T01:54:23.824Z,19.97
2022-12-15T01:55:55.062Z,20.08
2022-12-15T01:57:26.627Z,19.60
2022-12-15T01:58:58.037Z,20.41
2022-12-15T02:00:29.759Z,20.00
2022-12-15T02:02:01.776Z,20.28
2022-12-15T02:03:33.597Z,20.39
2022-12-15T02:05:05.454Z,19.49
2022-12-15T02:06:37.003Z,20.28
2022-12-15T02:08:08.521Z,20.27
2022-12-15T02:09:40.186Z,19.67
2022-12-15T02:11:11.603Z,19.65
2022-12-15T02:12:42.928Z,19.63
2022-12-15T02:14:14.461Z,19.58
2022-12-15T02:15:45.895Z,19.82
2022-12-15T02:17:17.659Z,19.15
2022-12-15T02:18:49.165Z,19.46
2022-12-15T02:20:20.480Z,19.39
2022-12-15T02:21:51.905Z,19.12
2022-12-15T02:23:23.249Z,19.44
2022-12-15T02:24:55.135Z,18.61
2022-12-15T02:26:26.883Z,18.69
2022-12-15T02:27:58.452Z,17.89
2022-12-15T02:29:29.847Z,18.77
2022-12-15T02:31:01.284Z,17.94
2022-12-15T02:32:42.728Z,18.62
2022-12-15T02:34:19.065Z,19.94
2022-12-15T02:35:50.395Z,19.76
2022-12-15T02:37:21.641Z,20.39
2022-12-15T02:38:53.139Z,19.84
2022-12-15T02:40:24.719Z,18.42
2022-12-15T02:41:56.358Z,19.45
2022-12-15T02:43:28.868Z,19.32
2022-12-15T02:45:00.513Z,18.82
2022-12-15T02:46:32.073Z,18.77
2022-12-15T02:48:03.400Z,18.89
2022-12-15T02:49:35.010Z,19.03
2022-12-15T02:51:07.438Z,19.24
2022-12-15T02:52:38.803Z,18.76
2022-12-15T02:54:10.595Z,19.00
2022-12-15T02:55:42.243Z,18.97
2022-12-15T02:57:13.905Z,18.62
2022-12-15T02:58:45.339Z,18.96
2022-12-15T03:00:16.955Z,18.32
2022-12-15T03:01:48.738Z,18.33
2022-12-15T03:03:21.702Z,17.37
2022-12-15T03:04:53.268Z,18.06
2022-12-15T03:06:24.909Z,18.30
2022-12-15T03:07:56.654Z,17.49
2022-12-15T03:09:27.967Z,18.29
2022-12-15T03:10:59.682Z,18.43
2022-12-15T03:12:31.312Z,17.24
2022-12-15T03:14:02.818Z,16.98
2022-12-15T03:15:35.793Z,17.92
2022-12-15T03:17:07.521Z,17.84
2022-12-15T03:18:39.105Z,18.51
2022-12-15T03:20:10.735Z,18.54
2022-12-15T03:21:42.312Z,18.26
2022-12-15T03:23:14.007Z,18.77
2022-12-15T03:24:45.567Z,17.93
2022-12-15T03:26:17.304Z,18.28
2022-12-15T03:27:48.938Z,18.19
2022-12-15T03:29:20.589Z,17.23
2022-12-15T03:30:52.083Z,17.52
2022-12-15T03:32:24.428Z,18.27
2022-12-15T03:33:55.870Z,17.44
2022-12-15T03:35:27.250Z,17.35
2022-12-15T03:36:58.807Z,17.95
2022-12-15T03:38:30.446Z,17.52
2022-12-15T03:40:02.132Z,18.24
2022-12-15T03:41:33.596Z,17.78
2022-12-15T03:43:04.981Z,16.63
2022-12-15T03:44:36.477Z,17.20
2022-12-15T03:46:08.161Z,17.60
2022-12-15T03:47:39.938Z,18.44
2022-12-15T03:49:11.713Z,17.44
2022-12-15T03:50:43.639Z,17.08
2022-12-15T03:52:14.842Z,17.88
2022-12-15T03:53:46.350Z,18.37
2022-12-15T03:55:18.877Z,18.17
2022-12-15T03:56:50.605Z,17.52
2022-12-15T03:58:22.040Z,18.35
2022-12-15T03:59:53.520Z,17.32
2022-12-15T04:01:25.156Z,17.33
2022-12-15T04:02:57.273Z,17.49
2022-12-15T04:04:29.211Z,18.19
2022-12-15T04:06:00.742Z,18.01
2022-12-15T04:07:32.264Z,16.98
2022-12-15T04:09:03.848Z,18.06
2022-12-15T04:10:35.441Z,18.34
2022-12-15T04:12:07.164Z,16.81
2022-12-15T04:13:38.910Z,17.40
2022-12-15T04:15:10.911Z,17.60
2022-12-15T04:16:42.499Z,17.18
2022-12-15T04:18:14.444Z,17.10
2022-12-15T04:19:45.947Z,17.09
2022-12-15T04:21:17.580Z,17.65
2022-12-15T04:22:48.932Z,17.14
2022-12-15T04:24:20.151Z,17.28
2022-12-15T04:25:51.382Z,17.58
2022-12-15T04:27:22.971Z,17.28
2022-12-15T04:28:54.742Z,17.32
2022-12-15T04:30:46.118Z,17.58
2022-12-15T04:32:18.102Z,17.34
2022-12-15T04:33:54.421Z,17.20
2022-12-15T04:35:25.862Z,17.32
2022-12-15T04:36:57.401Z,16.87
2022-12-15T04:38:29.064Z,17.20
2022-12-15T04:40:00.486Z,17.14
2022-12-15T04:41:32.434Z,17.36
2022-12-15T04:43:04.162Z,17.29
2022-12-15T04:44:35.456Z,17.49
2022-12-15T04:46:07.131Z,17.20
2022-12-15T04:47:54.643Z,16.58
2022-12-15T04:49:26.072Z,16.50
2022-12-15T04:51:25.259Z,17.12
2022-12-15T04:52:57.913Z,16.90
2022-12-15T04:54:45.689Z,16.76
2022-12-15T04:56:18.619Z,17.06
2022-12-15T04:57:50.752Z,17.19
2022-12-15T04:59:22.506Z,16.44
2022-12-15T05:00:54.171Z,16.83
2022-12-15T05:02:25.708Z,17.22
2022-12-15T05:04:02.149Z,17.25
2022-12-15T05:05:33.549Z,17.12
2022-12-15T05:07:04.960Z,16.22
2022-12-15T05:08:36.388Z,15.89
2022-12-15T05:10:15.101Z,16.28
2022-12-15T05:11:47.170Z,16.54
2022-12-15T05:13:19.372Z,16.01
2022-12-15T05:14:50.805Z,16.87
2022-12-15T05:16:22.719Z,16.85
2022-12-15T05:17:54.688Z,16.11
2022-12-15T05:19:26.336Z,16.26
2022-12-15T05:21:11.108Z,15.99
2022-12-15T05:22:42.668Z,16.42
2022-12-15T05:24:14.080Z,16.63
2022-12-15T05:26:11.737Z,15.90
2022-12-15T05:27:48.646Z,15.86
2022-12-15T05:29:19.948Z,16.00
2022-12-15T05:30:51.553Z,16.35
2022-12-15T05:34:24.206Z,17.22
2022-12-15T05:35:55.842Z,17.15
2022-12-15T05:37:28.330Z,17.02
2022-12-15T05:39:19.704Z,16.42
2022-12-15T05:40:51.179Z,17.04
2022-12-15T05:42:22.378Z,15.93
2022-12-15T05:43:54.026Z,16.23
2022-12-15T05:45:31.363Z,16.22
2022-12-15T05:47:07.732Z,15.78
2022-12-15T05:48:39.186Z,15.25
2022-12-15T05:50:10.553Z,16.24
2022-12-15T05:51:42.091Z,14.92
2022-12-15T05:53:13.437Z,16.06
2022-12-15T05:54:45.089Z,15.65
2022-12-15T05:56:16.880Z,15.42
2022-12-15T05:57:48.964Z,15.78
2022-12-15T05:59:20.651Z,15.96
2022-12-15T06:00:51.956Z,16.11
2022-12-15T06:02:23.375Z,15.98
2022-12-15T06:03:54.811Z,16.02
2022-12-15T06:05:26.343Z,14.41
2022-12-15T06:06:58.919Z,15.52
2022-12-15T06:08:30.503Z,14.30
2022-12-15T06:10:01.871Z,13.87
2022-12-15T06:11:33.156Z,14.14
2022-12-15T06:13:05.039Z,14.39
2022-12-15T06:14:36.448Z,14.84
2022-12-15T06:16:07.835Z,15.31
2022-12-15T06:17:39.358Z,15.42
2022-12-15T06:19:21.720Z,15.72
2022-12-15T06:20:54.212Z,16.87
2022-12-15T06:22:30.642Z,17.95
2022-12-15T06:24:02.127Z,20.35
2022-12-15T06:25:33.524Z,24.29
2022-12-15T06:27:04.946Z,21.47
2022-12-15T06:28:36.397Z,20.65
2022-12-15T06:30:07.902Z,18.52
2022-12-15T06:31:39.442Z,19.03
2022-12-15T06:33:36.658Z,19.78
2022-12-15T06:35:08.159Z,18.84
2022-12-15T06:36:39.913Z,18.99
2022-12-15T06:38:11.253Z,18.07
2022-12-15T06:39:42.601Z,17.08
2022-12-15T06:41:14.141Z,18.63
2022-12-15T06:42:45.655Z,18.50
2022-12-15T06:44:17.111Z,17.53
2022-12-15T06:45:48.338Z,17.32
2022-12-15T06:47:21.535Z,17.07
2022-12-15T06:48:53.003Z,17.22
2022-12-15T06:50:24.522Z,17.55
2022-12-15T06:51:56.241Z,17.14
2022-12-15T06:53:27.756Z,17.24
2022-12-15T06:54:59.496Z,18.22
2022-12-15T06:56:33.485Z,18.85
2022-12-15T06:58:05.930Z,18.04
2022-12-15T06:59:37.835Z,17.84
2022-12-15T07:01:09.477Z,18.03
2022-12-15T07:02:41.435Z,17.57
2022-12-15T07:04:13.174Z,17.89
2022-12-15T07:05:44.793Z,17.52
2022-12-15T07:07:16.120Z,17.73
2022-12-15T07:08:47.779Z,18.09
2022-12-15T07:10:31.181Z,18.01
2022-12-15T07:12:02.594Z,18.11
2022-12-15T07:13:39.244Z,17.28
2022-12-15T07:15:15.796Z,20.18
2022-12-15T07:16:57.110Z,18.20
2022-12-15T07:18:28.590Z,17.52
2022-12-15T07:20:00.251Z,17.23
2022-12-15T07:21:32.089Z,17.50
2022-12-15T07:23:05.280Z,17.69
2022-12-15T07:24:36.816Z,17.80
2022-12-15T07:26:11.592Z,17.03
2022-12-15T07:27:43.805Z,17.10
2022-12-15T07:29:21.097Z,17.21
2022-12-15T07:31:07.729Z,17.21
2022-12-15T07:32:39.799Z,17.98
2022-12-15T07:34:11.157Z,17.41
2022-12-15T07:35:42.790Z,16.65
2022-12-15T07:37:14.158Z,17.34
2022-12-15T07:38:50.558Z,16.89
2022-12-15T07:40:22.937Z,17.01
2022-12-15T07:41:59.526Z,17.14
2022-12-15T07:43:31.519Z,27.11
2022-12-15T07:45:30.055Z,21.22
2022-12-15T07:47:02.557Z,17.97
2022-12-15T07:49:12.223Z,17.79
2022-12-15T07:50:50.315Z,18.04
2022-12-15T07:52:45.438Z,17.36
2022-12-15T07:54:26.963Z,17.14
2022-12-15T07:56:07.337Z,17.06
2022-12-15T07:57:40.545Z,17.45
2022-12-15T07:59:39.178Z,17.63
2022-12-15T08:01:10.834Z,17.06
2022-12-15T08:03:09.723Z,17.71
2022-12-15T08:04:41.486Z,18.09
2022-12-15T08:06:13.110Z,17.54
2022-12-15T08:07:44.704Z,17.98
2022-12-15T08:09:16.121Z,18.23
2022-12-15T08:10:47.564Z,18.30
2022-12-15T08:12:25.873Z,17.97
2022-12-15T08:14:03.194Z,18.40
2022-12-15T08:15:35.478Z,18.17
2022-12-15T08:17:16.861Z,18.23
2022-12-15T08:18:48.239Z,18.35
2022-12-15T08:20:30.775Z,18.29
2022-12-15T08:22:02.266Z,18.60
2022-12-15T08:23:34.363Z,18.56
2022-12-15T08:25:29.370Z,17.93
2022-12-15T08:27:15.058Z,18.28
2022-12-15T08:28:49.122Z,18.94
2022-12-15T08:30:25.725Z,19.77
2022-12-15T08:32:02.501Z,20.01
2022-12-15T08:33:46.189Z,22.25
2022-12-15T08:37:48.454Z,31.00
2022-12-15T08:39:33.447Z,23.57
2022-12-15T08:41:16.333Z,19.77
2022-12-15T08:42:48.611Z,18.69
2022-12-15T08:44:20.200Z,18.72
2022-12-15T08:45:51.947Z,18.39
2022-12-15T08:47:23.588Z,18.63
2022-12-15T08:48:55.039Z,18.52
2022-12-15T08:50:59.616Z,18.36
2022-12-15T08:52:31.103Z,18.41
2022-12-15T08:54:16.688Z,18.36
2022-12-15T08:55:48.356Z,18.65
2022-12-15T08:57:20.017Z,18.31
2022-12-15T08:58:51.439Z,18.57
2022-12-15T09:00:23.195Z,18.95
2022-12-15T09:01:54.767Z,18.46
2022-12-15T09:03:31.815Z,17.92
2022-12-15T09:05:03.854Z,17.81
2022-12-15T09:06:35.426Z,18.03
2022-12-15T09:08:11.976Z,18.07
2022-12-15T09:09:43.740Z,17.89
2022-12-15T09:11:15.301Z,17.68
2022-12-15T09:12:47.299Z,18.02
2022-12-15T09:14:22.729Z,18.14
2022-12-15T09:16:09.798Z,17.06
2022-12-15T09:17:42.205Z,17.77
2022-12-15T09:19:13.618Z,18.12
2022-12-15T09:20:45.313Z,18.91
2022-12-15T09:22:16.667Z,18.48
2022-12-15T09:23:48.148Z,18.25
2022-12-15T09:25:19.597Z,17.75
2022-12-15T09:26:51.384Z,17.47
2022-12-15T09:28:22.790Z,17.29
2022-12-15T09:29:54.613Z,17.66
2022-12-15T09:31:26.604Z,17.99
2022-12-15T09:32:58.392Z,17.67
2022-12-15T09:34:29.666Z,17.59
2022-12-15T09:36:01.554Z,17.52
2022-12-15T09:37:33.135Z,18.06
2022-12-15T09:39:04.665Z,18.51
2022-12-15T09:40:36.164Z,17.86
2022-12-15T09:42:07.582Z,21.66
2022-12-15T09:43:44.602Z,27.74
2022-12-15T09:45:18.398Z,24.13
2022-12-15T09:46:54.859Z,19.14
2022-12-15T09:48:26.400Z,18.81
2022-12-15T09:49:57.778Z,18.23
2022-12-15T09:51:29.455Z,18.15
2022-12-15T09:53:01.269Z,17.77
2022-12-15T09:54:32.926Z,17.96
2022-12-15T09:56:04.274Z,18.08
2022-12-15T09:57:35.774Z,17.58
2022-12-15T09:59:07.127Z,17.87
2022-12-15T10:00:38.506Z,17.66
2022-12-15T10:02:10.313Z,17.45
2022-12-15T10:03:41.769Z,18.28
2022-12-15T10:05:13.254Z,17.31
2022-12-15T10:06:44.962Z,17.73
2022-12-15T10:08:21.926Z,17.38
2022-12-15T10:09:53.388Z,17.23
2022-12-15T10:11:24.925Z,17.82
2022-12-15T10:13:02.086Z,17.36
2022-12-15T10:14:34.061Z,16.75
2022-12-15T10:16:05.341Z,16.79
2022-12-15T10:17:36.951Z,17.12
2022-12-15T10:19:08.279Z,16.51
2022-12-15T10:20:39.576Z,16.31
2022-12-15T10:22:11.254Z,16.61
2022-12-15T10:23:43.190Z,17.10
2022-12-15T10:25:14.642Z,16.68
2022-12-15T10:26:45.825Z,16.92
2022-12-15T10:28:17.549Z,16.40
2022-12-15T10:29:50.881Z,16.43
2022-12-15T15:04:39.990Z,20.48
2022-12-15T15:06:12.174Z,21.32
2022-12-15T15:07:43.914Z,21.92
2022-12-15T15:09:15.187Z,22.17
2022-12-15T15:10:46.726Z,21.37
2022-12-15T15:12:18.167Z,20.73
2022-12-15T15:13:49.894Z,20.48
2022-12-15T15:15:21.393Z,21.07
2022-12-15T15:16:52.939Z,20.18
2022-12-15T15:18:24.701Z,20.50
2022-12-15T15:19:56.196Z,20.83
2022-12-15T15:21:37.590Z,20.60
2022-12-15T15:23:10.103Z,20.72
2022-12-15T15:24:41.664Z,20.45
2022-12-15T15:26:13.047Z,20.77
2022-12-15T15:27:44.424Z,20.86
2022-12-15T15:29:16.088Z,20.75
2022-12-15T15:30:48.739Z,20.54
2022-12-15T15:32:20.464Z,21.02
2022-12-15T15:33:52.020Z,20.51
2022-12-15T15:35:23.500Z,20.71
2022-12-15T15:36:55.217Z,20.19
2022-12-15T15:38:26.786Z,20.99
2022-12-15T15:39:58.173Z,20.60
2022-12-15T15:41:40.979Z,21.41
2022-12-15T15:43:12.609Z,21.37
2022-12-15T15:44:44.868Z,20.98
2022-12-15T15:46:16.632Z,21.35
2022-12-15T15:47:48.012Z,22.05
2022-12-15T15:49:19.543Z,21.89
2022-12-15T15:50:50.955Z,22.55
2022-12-15T15:52:22.229Z,22.74
2022-12-15T15:53:53.711Z,21.96
2022-12-15T15:55:25.101Z,22.12
2022-12-15T15:56:56.476Z,22.76
2022-12-15T15:58:27.982Z,22.65
2022-12-15T15:59:59.439Z,23.15
2022-12-15T16:01:30.757Z,23.67
2022-12-15T16:03:02.197Z,22.91
2022-12-15T16:04:33.742Z,22.42
2022-12-15T16:06:05.019Z,22.41
2022-12-15T16:07:36.613Z,22.48
2022-12-15T16:09:08.001Z,21.78
2022-12-15T16:10:39.441Z,22.52
2022-12-15T16:14:08.221Z,25.10
2022-12-15T16:15:39.685Z,25.13
2022-12-15T16:17:34.252Z,25.00
2022-12-15T16:19:05.778Z,25.69
2022-12-15T16:20:37.533Z,25.59
2022-12-15T16:22:09.244Z,25.58
2022-12-15T16:23:40.912Z,24.32
2022-12-15T16:25:12.286Z,25.16
2022-12-15T16:26:43.921Z,25.19
2022-12-15T16:28:15.478Z,24.84
2022-12-15T16:29:47.138Z,24.37
2022-12-15T16:31:18.798Z,24.50
2022-12-15T16:32:50.044Z,24.43
2022-12-15T16:34:21.567Z,24.40
2022-12-15T16:36:02.852Z,26.48
2022-12-15T16:37:39.342Z,26.22
2022-12-15T16:39:26.352Z,27.92
2022-12-15T16:40:57.954Z,29.44
2022-12-15T16:42:29.671Z,28.57
2022-12-15T16:44:01.251Z,27.60
2022-12-15T16:45:32.851Z,27.20
2022-12-15T16:47:04.324Z,27.21
2022-12-15T16:48:36.490Z,26.54
2022-12-15T16:50:08.670Z,26.26
2022-12-15T16:51:40.060Z,26.12
2022-12-15T16:53:11.608Z,26.64
2022-12-15T16:54:43.154Z,25.65
2022-12-15T16:56:14.764Z,25.42
2022-12-15T16:57:46.036Z,25.76
2022-12-15T16:59:32.457Z,25.61
2022-12-15T17:01:05.492Z,25.88
2022-12-15T17:02:37.188Z,26.73
2022-12-15T17:04:08.827Z,27.80
2022-12-15T17:05:40.516Z,27.47
2022-12-15T17:07:16.369Z,26.74
2022-12-15T17:08:51.303Z,26.17
2022-12-15T17:10:22.676Z,26.25
2022-12-15T17:11:54.087Z,27.88
2022-12-15T17:13:28.742Z,28.98
2022-12-15T17:15:05.191Z,32.44
2022-12-15T17:16:46.557Z,33.11
2022-12-15T17:18:18.036Z,32.96
2022-12-15T17:20:27.519Z,37.00
2022-12-15T17:21:59.888Z,35.54
2022-12-15T17:23:41.654Z,39.49
2022-12-15T17:25:13.643Z,39.36
2022-12-15T17:27:05.387Z,34.76
2022-12-15T17:28:37.144Z,34.09
2022-12-15T17:30:08.650Z,34.22
2022-12-15T17:32:09.678Z,34.12
2022-12-15T17:33:42.534Z,33.98
2022-12-15T17:35:13.761Z,34.29
2022-12-15T17:36:44.876Z,34.11
2022-12-15T17:38:16.423Z,33.74
2022-12-15T17:39:47.878Z,34.30
2022-12-15T17:41:59.220Z,37.52
2022-12-15T17:43:35.620Z,53.65
2022-12-15T17:45:07.710Z,49.96
2022-12-15T17:46:39.540Z,45.98
2022-12-15T17:48:23.535Z,45.09
2022-12-15T17:49:55.164Z,43.99
2022-12-15T17:51:26.800Z,41.52
2022-12-15T17:52:58.482Z,41.18
2022-12-15T17:54:30.055Z,40.14
2022-12-15T17:56:01.539Z,39.40
2022-12-15T17:57:33.468Z,38.10
2022-12-15T17:59:06.907Z,37.48
2022-12-15T18:00:56.032Z,36.09
2022-12-15T18:02:28.709Z,34.36
2022-12-15T18:04:00.869Z,34.63
2022-12-15T18:05:32.928Z,34.77
2022-12-15T18:07:04.157Z,34.02
2022-12-15T18:08:35.744Z,34.60
2022-12-15T18:10:07.330Z,33.66
2022-12-15T18:11:39.137Z,33.65
2022-12-15T18:13:11.119Z,34.40
2022-12-15T18:14:42.778Z,35.58
2022-12-15T18:16:21.117Z,37.26
2022-12-15T18:17:52.938Z,39.72
2022-12-15T18:19:25.647Z,40.47
2022-12-15T18:20:58.707Z,40.78
2022-12-15T18:22:31.356Z,39.77
2022-12-15T18:24:23.359Z,39.78
2022-12-15T18:25:59.666Z,41.22
2022-12-15T18:27:35.973Z,39.69
2022-12-15T18:29:08.030Z,38.26
2022-12-15T18:30:49.688Z,35.45
2022-12-15T18:32:21.446Z,33.70
2022-12-15T18:33:52.916Z,36.58
2022-12-15T18:35:24.819Z,37.55
2022-12-15T18:36:56.548Z,36.33
2022-12-15T18:38:28.115Z,35.68
2022-12-15T18:40:09.987Z,36.21
2022-12-15T18:41:46.592Z,37.02
2022-12-15T18:43:23.500Z,40.62
2022-12-15T18:44:55.285Z,42.92
2022-12-15T18:46:44.649Z,41.22
2022-12-15T18:50:45.653Z,40.08
2022-12-15T18:52:17.565Z,39.45
2022-12-15T18:53:49.429Z,39.02
2022-12-15T18:55:21.069Z,38.67
2022-12-15T18:56:52.675Z,40.34
2022-12-15T18:58:26.151Z,40.67
2022-12-15T19:00:04.511Z,39.36
2022-12-15T19:01:36.131Z,39.17
2022-12-15T19:03:17.480Z,40.09
2022-12-15T19:04:59.745Z,40.25
2022-12-15T19:06:31.204Z,39.49
2022-12-15T19:08:10.373Z,39.76
2022-12-15T19:09:41.833Z,41.80
2022-12-15T19:11:23.946Z,42.77
2022-12-15T19:13:33.065Z,43.54
2022-12-15T19:15:16.934Z,41.48
2022-12-15T19:16:54.674Z,39.52
2022-12-15T19:18:26.623Z,41.48
2022-12-15T19:19:58.301Z,41.09
2022-12-15T19:21:49.767Z,40.77
2022-12-15T19:23:22.869Z,41.58
2022-12-15T19:25:04.821Z,40.20
2022-12-15T19:26:36.719Z,36.28
2022-12-15T19:28:34.873Z,35.71
2022-12-15T19:30:06.596Z,38.64
2022-12-15T19:31:53.135Z,40.40
2022-12-15T19:33:24.788Z,40.64
2022-12-15T19:34:56.515Z,39.72
2022-12-15T19:36:32.259Z,37.82
2022-12-15T19:38:06.915Z,37.96
2022-12-15T19:39:59.796Z,39.72
2022-12-15T19:41:31.413Z,39.26
2022-12-15T19:43:03.375Z,40.38
2022-12-15T19:44:36.383Z,42.96
2022-12-15T19:46:08.052Z,40.51
2022-12-15T19:47:39.690Z,38.83
2022-12-15T19:49:11.266Z,39.51
2022-12-15T19:50:42.638Z,41.01
2022-12-15T19:52:18.974Z,40.06
2022-12-15T19:53:50.656Z,38.78
2022-12-15T19:55:22.223Z,38.61
2022-12-15T19:56:53.949Z,38.04
2022-12-15T19:58:28.078Z,40.16
2022-12-15T19:59:59.920Z,41.13
2022-12-15T20:01:32.165Z,41.07
2022-12-15T20:03:03.960Z,40.76
2022-12-15T20:04:36.909Z,41.66
2022-12-15T20:06:08.499Z,40.60
2022-12-15T20:07:39.863Z,40.53
2022-12-15T20:09:11.306Z,39.27
2022-12-15T20:10:43.198Z,38.28
2022-12-15T20:12:35.059Z,38.01
2022-12-15T20:14:06.538Z,38.99
2022-12-15T20:15:38.026Z,38.69
2022-12-15T20:17:09.444Z,39.74
2022-12-15T20:18:41.103Z,40.63
2022-12-15T20:20:12.623Z,43.11
2022-12-15T20:21:44.299Z,41.08
2022-12-15T20:23:15.766Z,40.66
2022-12-15T20:24:47.509Z,41.17
2022-12-15T20:26:18.982Z,42.88
2022-12-15T20:27:50.527Z,42.97
2022-12-15T20:29:21.963Z,37.93
2022-12-15T20:30:53.384Z,38.43
2022-12-15T20:32:24.890Z,38.68
2022-12-15T20:33:56.723Z,40.75
2022-12-15T20:35:28.089Z,46.15
2022-12-15T20:36:59.505Z,47.30
2022-12-15T20:38:30.906Z,43.95
2022-12-15T20:40:02.521Z,41.53
2022-12-15T20:41:34.323Z,39.75
2022-12-15T20:43:05.789Z,36.88
2022-12-15T20:44:37.407Z,36.90
2022-12-15T20:46:08.907Z,35.30
2022-12-15T20:47:40.536Z,34.16
2022-12-15T20:49:11.881Z,34.00
2022-12-15T20:50:43.489Z,36.55
2022-12-15T20:52:14.863Z,38.45
2022-12-15T20:53:46.445Z,38.59
2022-12-15T20:55:17.986Z,40.05
2022-12-15T20:56:49.465Z,37.57
2022-12-15T20:58:20.846Z,38.67
2022-12-15T20:59:52.218Z,39.97
2022-12-15T21:01:23.856Z,38.17
2022-12-15T21:02:56.036Z,35.86
2022-12-15T21:04:27.925Z,36.45
2022-12-15T21:05:59.589Z,36.33
2022-12-15T21:07:30.952Z,38.28
2022-12-15T21:09:02.286Z,43.18
2022-12-15T21:10:38.753Z,45.81
2022-12-15T21:12:10.229Z,42.43
2022-12-15T21:13:41.790Z,39.43
2022-12-15T21:15:13.066Z,39.02
2022-12-15T21:16:57.749Z,37.46
2022-12-15T21:19:10.761Z,36.52
2022-12-15T21:20:50.265Z,37.76
2022-12-15T21:22:22.899Z,36.80
2022-12-15T21:23:54.480Z,35.94
2022-12-15T21:25:26.030Z,35.96
2022-12-15T21:26:57.739Z,35.77
2022-12-15T21:28:29.404Z,34.92
2022-12-15T21:30:01.162Z,35.32
2022-12-15T21:31:32.721Z,46.88
2022-12-15T21:33:17.094Z,94.07
2022-12-15T21:34:48.691Z,59.73
2022-12-15T21:36:20.291Z,45.36
2022-12-15T21:37:51.849Z,42.88
2022-12-15T21:39:23.175Z,42.41
2022-12-15T21:40:59.273Z,41.13
2022-12-15T21:42:31.161Z,40.68
2022-12-15T21:44:02.701Z,36.45
2022-12-15T21:45:34.399Z,32.72
2022-12-15T21:47:06.119Z,30.70
2022-12-15T21:48:37.584Z,31.70
2022-12-15T21:52:01.360Z,31.43
2022-12-15T21:53:32.918Z,32.28
2022-12-15T21:55:04.664Z,34.36
2022-12-15T21:56:36.230Z,35.33
2022-12-15T21:58:07.962Z,35.38
2022-12-15T21:59:39.409Z,36.89
2022-12-15T22:01:12.188Z,36.03
2022-12-15T22:04:54.774Z,36.59
2022-12-15T22:06:26.776Z,36.05
2022-12-15T22:07:58.350Z,35.56
2022-12-15T22:09:30.588Z,36.20
2022-12-15T22:11:06.921Z,36.22
2022-12-15T22:13:03.510Z,35.61
2022-12-15T22:14:34.825Z,36.66
2022-12-15T22:16:11.572Z,37.84
2022-12-15T22:17:43.129Z,36.81
2022-12-15T22:19:24.383Z,36.15
2022-12-15T22:20:55.803Z,34.60
2022-12-15T22:22:31.781Z,34.88
2022-12-15T22:24:03.558Z,34.26
2022-12-15T22:25:34.869Z,35.26
2022-12-15T22:27:06.443Z,36.00
2022-12-15T22:28:42.986Z,35.47
2022-12-15T22:30:26.355Z,33.78
2022-12-15T22:31:57.599Z,35.06
2022-12-15T22:33:29.127Z,35.13
2022-12-15T22:35:00.668Z,34.35
2022-12-15T22:36:31.932Z,34.50
2022-12-15T22:38:03.271Z,32.86
2022-12-15T22:39:34.733Z,32.57
2022-12-15T22:41:06.293Z,32.74
2022-12-15T22:42:38.531Z,32.23
2022-12-15T22:44:10.108Z,33.13
2022-12-15T22:45:42.924Z,33.03
2022-12-15T22:47:14.450Z,34.01
2022-12-15T22:48:46.377Z,33.32
2022-12-15T22:50:18.149Z,33.51
2022-12-15T22:51:49.584Z,39.60
2022-12-15T22:53:21.835Z,46.57
2022-12-15T22:54:53.395Z,37.82
2022-12-15T22:56:26.563Z,36.76
2022-12-15T22:57:58.178Z,37.15
2022-12-15T22:59:29.723Z,36.25
2022-12-15T23:01:01.212Z,36.21
2022-12-15T23:02:32.632Z,35.68
2022-12-15T23:04:04.098Z,34.74
2022-12-15T23:05:35.645Z,35.98
2022-12-15T23:07:07.188Z,38.69
2022-12-15T23:09:03.405Z,38.43
2022-12-15T23:10:35.097Z,36.85
2022-12-15T23:12:06.844Z,38.71
2022-12-15T23:13:38.484Z,34.25
2022-12-15T23:15:10.703Z,34.52
2022-12-15T23:16:58.082Z,33.07
2022-12-15T23:18:29.653Z,33.90
2022-12-15T23:20:01.160Z,33.55
2022-12-15T23:21:32.536Z,33.58
2022-12-15T23:23:04.703Z,33.66
2022-12-15T23:24:36.312Z,33.33
2022-12-15T23:26:07.756Z,33.56
2022-12-15T23:27:39.880Z,34.04
2022-12-15T23:29:11.462Z,33.55
2022-12-15T23:30:42.878Z,33.91
2022-12-15T23:32:14.418Z,35.65
2022-12-15T23:33:45.969Z,36.60
2022-12-15T23:35:17.405Z,38.30
2022-12-15T23:36:49.052Z,37.22
2022-12-15T23:38:20.405Z,37.75
2022-12-15T23:39:52.073Z,39.35
2022-12-15T23:41:23.588Z,38.92
2022-12-15T23:42:55.271Z,38.17
2022-12-15T23:44:26.825Z,37.59
2022-12-15T23:45:58.487Z,37.17
2022-12-15T23:47:30.103Z,36.68
2022-12-15T23:49:01.660Z,36.68
2022-12-15T23:50:32.998Z,36.88
2022-12-15T23:52:04.521Z,36.94
2022-12-15T23:53:36.221Z,36.48
2022-12-15T23:55:07.533Z,35.07
2022-12-15T23:56:40.000Z,35.67
2022-12-15T23:58:11.351Z,35.26
2022-12-15T23:59:42.695Z,34.98
